Time;durP1;ratioP1;P1;durP2;ratioP2;P2;SDS_P1;SDS_P2;PMS_P1;PMS_P2;Temp;Humidity;BMP_temperature;BMP_pressure;BME280_temperature;BME280_humidity;BME280_pressure;Samples;Min_cycle;Max_cycle;Signal;HPM_P1;HPM_P2
2021/07/09 00:03:02;;;;;;;4.50;3.83;;;14.80;99.90;;;;;;5028940;28;20513;-55
2021/07/09 00:05:33;;;;;;;6.53;4.00;;;14.70;99.90;;;;;;5026433;28;20450;-55
2021/07/09 00:07:59;;;;;;;4.03;3.63;;;14.70;99.90;;;;;;5019241;28;20978;-55
2021/07/09 00:10:25;;;;;;;5.80;4.43;;;14.70;99.90;;;;;;5012285;28;20463;-53
2021/07/09 00:12:56;;;;;;;5.77;3.77;;;14.70;99.90;;;;;;5028737;28;20183;-54
2021/07/09 00:15:24;;;;;;;6.30;3.90;;;14.70;99.90;;;;;;5027029;28;20684;-56
2021/07/09 00:17:56;;;;;;;3.37;3.03;;;14.60;99.90;;;;;;5009712;28;20442;-60
2021/07/09 00:20:21;;;;;;;4.00;3.60;;;14.60;99.90;;;;;;5011562;28;20904;-56
2021/07/09 00:22:50;;;;;;;4.07;3.67;;;14.60;99.90;;;;;;5027844;28;20497;-56
2021/07/09 00:25:22;;;;;;;6.50;4.23;;;14.60;99.90;;;;;;5017229;28;20212;-56
2021/07/09 00:27:51;;;;;;;3.97;3.57;;;14.60;99.90;;;;;;5029111;28;20435;-56
2021/07/09 00:30:17;;;;;;;3.67;3.20;;;14.60;99.90;;;;;;5028230;28;20514;-55
2021/07/09 00:32:42;;;;;;;3.37;3.07;;;14.60;99.90;;;;;;5026825;28;20513;-56
2021/07/09 00:35:10;;;;;;;5.90;3.70;;;14.60;99.90;;;;;;5028643;22;20277;-59
2021/07/09 00:37:35;;;;;;;4.33;3.70;;;14.60;99.90;;;;;;5030764;28;20175;-59
2021/07/09 00:40:06;;;;;;;4.87;3.30;;;14.60;99.90;;;;;;5030581;28;20399;-58
2021/07/09 00:42:31;;;;;;;7.13;3.13;;;14.60;99.90;;;;;;5029056;28;20721;-59
2021/07/09 00:45:03;;;;;;;3.60;3.30;;;14.50;99.90;;;;;;5020964;28;20439;-59
2021/07/09 00:47:28;;;;;;;5.63;3.57;;;14.50;99.90;;;;;;5011205;28;20184;-59
2021/07/09 00:49:57;;;;;;;9.77;3.37;;;14.50;99.90;;;;;;5027773;28;20453;-58
2021/07/09 00:52:22;;;;;;;3.63;3.30;;;14.50;99.90;;;;;;5024859;28;20794;-59
2021/07/09 00:54:48;;;;;;;4.90;4.00;;;14.50;99.90;;;;;;5029599;28;20872;-59
2021/07/09 00:57:19;;;;;;;5.20;3.83;;;14.50;99.90;;;;;;5031108;28;20202;-59
2021/07/09 00:59:48;;;;;;;4.80;3.40;;;14.50;99.90;;;;;;5021932;28;20657;-60
2021/07/09 01:02:14;;;;;;;5.37;3.90;;;14.50;99.90;;;;;;5028189;28;20466;-59
2021/07/09 01:04:47;;;;;;;5.27;4.00;;;14.50;99.90;;;;;;5027732;28;20414;-59
2021/07/09 01:07:15;;;;;;;6.00;3.77;;;14.50;99.90;;;;;;5030131;28;20260;-59
2021/07/09 01:09:41;;;;;;;4.93;3.83;;;14.50;99.90;;;;;;5029700;28;20465;-60
2021/07/09 01:12:06;;;;;;;3.97;3.57;;;14.50;99.90;;;;;;5029761;28;20454;-60
2021/07/09 01:14:32;;;;;;;5.80;3.47;;;14.40;99.90;;;;;;5029765;28;20366;-60
2021/07/09 01:16:58;;;;;;;4.60;3.50;;;14.40;99.90;;;;;;5027746;28;20264;-58
2021/07/09 01:19:26;;;;;;;5.10;3.20;;;14.40;99.90;;;;;;5010785;28;20176;-58
2021/07/09 01:21:57;;;;;;;8.03;3.50;;;14.40;99.90;;;;;;5022109;28;20702;-59
2021/07/09 01:24:24;;;;;;;7.20;3.50;;;14.40;99.90;;;;;;5029003;28;20582;-58
2021/07/09 01:26:52;;;;;;;4.20;3.80;;;14.30;99.90;;;;;;5024779;28;20451;-58
2021/07/09 01:29:21;;;;;;;5.33;3.30;;;14.30;99.90;;;;;;5016481;28;20955;-58
2021/07/09 01:31:47;;;;;;;3.80;3.20;;;14.30;99.90;;;;;;5027772;28;20851;-57
2021/07/09 01:34:13;;;;;;;3.30;3.00;;;14.30;99.90;;;;;;5027492;28;20636;-58
2021/07/09 01:36:38;;;;;;;3.00;2.70;;;14.30;99.90;;;;;;5019717;28;20299;-58
2021/07/09 01:39:05;;;;;;;3.37;3.07;;;14.20;99.90;;;;;;5011337;28;20268;-58
2021/07/09 01:41:30;;;;;;;4.67;3.13;;;14.20;99.90;;;;;;5028723;28;20270;-58
2021/07/09 01:43:56;;;;;;;5.70;3.50;;;14.20;99.90;;;;;;5021545;28;20962;-58
2021/07/09 01:46:22;;;;;;;7.67;2.80;;;14.20;99.90;;;;;;5022308;28;20186;-58
2021/07/09 01:48:47;;;;;;;4.37;3.10;;;14.20;99.90;;;;;;5029461;28;20254;-58
2021/07/09 01:51:19;;;;;;;3.77;3.03;;;14.20;99.90;;;;;;5026374;28;20179;-59
2021/07/09 01:53:44;;;;;;;3.27;2.97;;;14.20;99.90;;;;;;5023168;28;20226;-57
2021/07/09 01:56:13;;;;;;;6.83;3.47;;;14.20;99.90;;;;;;5029211;28;20434;-58
2021/07/09 01:58:41;;;;;;;7.20;3.20;;;14.20;99.90;;;;;;5010186;28;20175;-58
2021/07/09 02:01:12;;;;;;;6.20;3.50;;;14.20;99.90;;;;;;5020627;28;20449;-58
2021/07/09 02:03:46;;;;;;;4.13;3.17;;;14.10;99.90;;;;;;5022137;28;20465;-58
2021/07/09 02:06:12;;;;;;;4.43;3.20;;;14.10;99.90;;;;;;5038851;28;20442;-58
2021/07/09 02:08:38;;;;;;;3.97;3.20;;;14.10;99.90;;;;;;5009238;28;20481;-59
2021/07/09 02:11:03;;;;;;;3.47;3.17;;;14.10;99.90;;;;;;5013179;28;20741;-58
2021/07/09 02:13:29;;;;;;;5.33;3.40;;;14.10;99.90;;;;;;5026855;28;20828;-58
2021/07/09 02:16:00;;;;;;;3.40;3.10;;;14.10;99.90;;;;;;5023912;28;20192;-58
2021/07/09 02:18:29;;;;;;;3.63;3.00;;;14.10;99.90;;;;;;5010251;28;20536;-58
2021/07/09 02:20:59;;;;;;;3.00;2.63;;;14.10;99.90;;;;;;5008373;28;20419;-57
2021/07/09 02:23:28;;;;;;;3.53;2.77;;;14.10;99.90;;;;;;5017652;28;20716;-58
2021/07/09 02:25:54;;;;;;;4.63;2.87;;;14.10;99.90;;;;;;5024204;28;20818;-60
2021/07/09 02:28:22;;;;;;;3.20;2.90;;;14.00;99.90;;;;;;5027963;28;20421;-58
2021/07/09 02:30:47;;;;;;;4.27;2.90;;;14.00;99.90;;;;;;5029546;28;20179;-58
2021/07/09 02:33:28;;;;;;;3.10;2.70;;;14.00;99.90;;;;;;5017312;28;20438;-58
2021/07/09 02:35:56;;;;;;;6.23;2.93;;;14.00;99.90;;;;;;5027677;28;20219;-58
2021/07/09 02:38:22;;;;;;;3.30;2.90;;;14.00;99.90;;;;;;5028136;28;20430;-57
2021/07/09 02:40:50;;;;;;;5.70;3.43;;;13.90;99.90;;;;;;5026966;28;20851;-58
2021/07/09 02:43:16;;;;;;;6.43;3.43;;;13.90;99.90;;;;;;5028839;28;20199;-59
2021/07/09 02:45:44;;;;;;;6.10;4.40;;;13.90;99.90;;;;;;5028335;28;20473;-58
2021/07/09 02:48:10;;;;;;;10.33;3.43;;;13.90;99.90;;;;;;5032998;28;20176;-58
2021/07/09 02:50:38;;;;;;;4.10;3.30;;;13.90;99.90;;;;;;5030043;28;20782;-58
2021/07/09 02:53:04;;;;;;;5.10;3.17;;;13.90;99.90;;;;;;5032111;28;20190;-58
2021/07/09 02:55:29;;;;;;;11.23;3.60;;;13.90;99.90;;;;;;5032351;28;20446;-58
2021/07/09 02:57:55;;;;;;;4.13;3.27;;;13.90;99.90;;;;;;5036600;28;20181;-58
2021/07/09 03:00:23;;;;;;;5.60;3.57;;;13.90;99.90;;;;;;5040627;28;20184;-58
2021/07/09 03:02:49;;;;;;;6.20;3.67;;;13.90;99.90;;;;;;5046234;28;20249;-57
2021/07/09 03:05:15;;;;;;;6.47;3.37;;;13.90;99.90;;;;;;5042232;28;20454;-58
2021/07/09 03:07:40;;;;;;;6.20;3.67;;;13.90;99.90;;;;;;5034233;28;20184;-58
2021/07/09 03:10:14;;;;;;;6.80;3.50;;;13.90;99.90;;;;;;5018806;28;20219;-58
2021/07/09 03:12:45;;;;;;;4.27;3.60;;;13.90;99.90;;;;;;5020306;28;20172;-58
2021/07/09 03:15:12;;;;;;;5.03;3.37;;;13.90;99.90;;;;;;5024989;28;20981;-55
2021/07/09 03:17:41;;;;;;;4.10;3.20;;;13.90;99.90;;;;;;5032840;28;20418;-57
2021/07/09 03:20:12;;;;;;;7.70;3.23;;;13.80;99.90;;;;;;5033079;28;20488;-57
2021/07/09 03:22:38;;;;;;;4.00;3.20;;;13.90;99.90;;;;;;5031678;28;20465;-58
2021/07/09 03:25:14;;;;;;;4.53;4.10;;;13.80;99.90;;;;;;5023270;28;20512;-59
2021/07/09 03:27:40;;;;;;;5.60;3.80;;;13.90;99.90;;;;;;5031730;28;20968;-58
2021/07/09 03:30:09;;;;;;;4.70;4.10;;;13.80;99.90;;;;;;5031454;28;20426;-58
2021/07/09 03:32:35;;;;;;;9.37;4.30;;;13.80;99.90;;;;;;5024955;28;20187;-58
2021/07/09 03:35:13;;;;;;;5.87;3.90;;;13.90;99.90;;;;;;5012054;28;20818;-58
2021/07/09 03:37:39;;;;;;;5.63;3.70;;;13.80;99.90;;;;;;5020709;28;20422;-58
2021/07/09 03:40:07;;;;;;;5.93;4.63;;;13.80;99.90;;;;;;5031853;28;20438;-58
2021/07/09 03:42:32;;;;;;;5.50;3.83;;;13.80;99.90;;;;;;5018881;28;20246;-58
2021/07/09 03:44:58;;;;;;;6.00;4.40;;;13.80;99.90;;;;;;5011939;28;20509;-58
2021/07/09 03:47:24;;;;;;;5.20;3.97;;;13.80;99.90;;;;;;5031372;28;20183;-58
2021/07/09 03:49:49;;;;;;;7.83;4.20;;;13.80;99.90;;;;;;5030552;28;20176;-58
2021/07/09 03:52:15;;;;;;;5.27;3.60;;;13.80;99.90;;;;;;5028208;28;20188;-58
2021/07/09 03:54:41;;;;;;;4.63;3.53;;;13.70;99.90;;;;;;5030828;28;20549;-58
2021/07/09 03:57:06;;;;;;;5.63;3.57;;;13.70;99.90;;;;;;5030882;28;20168;-58
2021/07/09 03:59:32;;;;;;;5.40;4.10;;;13.70;99.90;;;;;;5030065;28;20199;-57
2021/07/09 04:01:58;;;;;;;6.83;3.50;;;13.70;99.90;;;;;;5021381;28;20814;-55
2021/07/09 04:04:26;;;;;;;4.60;3.30;;;13.70;99.90;;;;;;5024633;28;20600;-58
2021/07/09 04:06:52;;;;;;;6.40;3.33;;;13.70;99.90;;;;;;5028176;28;20200;-57
2021/07/09 04:09:18;;;;;;;4.10;3.60;;;13.70;99.90;;;;;;5026029;28;20424;-58
2021/07/09 04:11:46;;;;;;;8.07;4.17;;;13.70;99.90;;;;;;5021152;28;20568;-58
2021/07/09 04:14:12;;;;;;;7.80;3.97;;;13.70;99.90;;;;;;5020669;28;20187;-57
2021/07/09 04:16:37;;;;;;;5.00;3.93;;;13.70;99.90;;;;;;5020290;28;20438;-57
2021/07/09 04:19:03;;;;;;;4.00;3.60;;;13.70;99.90;;;;;;5031902;28;20176;-58
2021/07/09 04:21:29;;;;;;;4.40;3.80;;;13.80;99.90;;;;;;5042577;28;20184;-58
2021/07/09 04:23:54;;;;;;;9.37;4.73;;;13.70;99.90;;;;;;5023853;28;20271;-59
2021/07/09 04:26:20;;;;;;;5.20;3.43;;;13.70;99.90;;;;;;5026622;28;20694;-58
2021/07/09 04:28:46;;;;;;;5.10;3.33;;;13.80;99.90;;;;;;5025640;28;20664;-56
2021/07/09 04:31:12;;;;;;;8.07;3.70;;;13.70;99.90;;;;;;5024145;28;20206;-59
2021/07/09 04:33:38;;;;;;;6.60;4.27;;;13.80;99.90;;;;;;5019516;28;20941;-59
2021/07/09 04:36:03;;;;;;;8.43;4.43;;;13.80;99.90;;;;;;5016422;28;20211;-58
2021/07/09 04:38:29;;;;;;;10.00;4.70;;;13.80;99.90;;;;;;5018982;28;20187;-58
2021/07/09 04:40:55;;;;;;;5.20;4.57;;;13.80;99.90;;;;;;5017304;28;20184;-59
2021/07/09 04:43:20;;;;;;;4.17;3.23;;;13.90;99.90;;;;;;5018513;28;20210;-59
2021/07/09 04:45:46;;;;;;;5.50;3.93;;;13.90;99.90;;;;;;5017722;28;20214;-59
2021/07/09 04:48:11;;;;;;;7.27;3.80;;;13.90;99.90;;;;;;5021183;28;20176;-59
2021/07/09 04:50:37;;;;;;;7.30;4.30;;;13.90;99.90;;;;;;5017849;28;20175;-58
2021/07/09 04:53:03;;;;;;;4.97;4.20;;;13.90;99.90;;;;;;5015934;28;20243;-58
2021/07/09 04:55:29;;;;;;;4.67;3.67;;;13.90;99.90;;;;;;5021603;28;20240;-58
2021/07/09 04:57:54;;;;;;;5.10;3.90;;;13.90;99.90;;;;;;5024368;28;20675;-58
2021/07/09 05:00:20;;;;;;;5.60;4.07;;;13.90;99.90;;;;;;5023290;28;20518;-59
2021/07/09 05:02:46;;;;;;;6.93;4.10;;;13.90;99.90;;;;;;5023910;28;20554;-58
2021/07/09 05:05:15;;;;;;;7.20;4.00;;;13.90;99.90;;;;;;5023363;28;20203;-58
2021/07/09 05:07:41;;;;;;;6.07;3.93;;;13.90;99.90;;;;;;5020274;28;20670;-58
2021/07/09 05:10:08;;;;;;;6.00;4.17;;;13.90;99.90;;;;;;5020728;28;20938;-58
2021/07/09 05:12:34;;;;;;;5.50;3.53;;;13.90;99.90;;;;;;5023413;28;20429;-58
2021/07/09 05:15:00;;;;;;;4.53;4.00;;;13.90;99.90;;;;;;5019144;28;20462;-58
2021/07/09 05:17:25;;;;;;;5.30;4.03;;;13.90;99.90;;;;;;5021261;28;20195;-58
2021/07/09 05:19:54;;;;;;;5.53;4.17;;;13.90;99.90;;;;;;5018381;28;20183;-59
2021/07/09 05:22:23;;;;;;;14.13;5.20;;;14.00;99.90;;;;;;5021096;28;20200;-58
2021/07/09 05:24:53;;;;;;;8.73;5.70;;;14.00;99.90;;;;;;5023035;28;20517;-59
2021/07/09 05:27:19;;;;;;;4.03;3.60;;;14.00;99.90;;;;;;5024383;28;20419;-58
2021/07/09 05:29:45;;;;;;;6.00;4.03;;;14.00;99.90;;;;;;5023691;28;20426;-58
2021/07/09 05:32:11;;;;;;;7.80;4.23;;;14.10;99.90;;;;;;5018820;28;20970;-58
2021/07/09 05:34:37;;;;;;;4.93;4.23;;;14.10;99.90;;;;;;5018970;28;20204;-58
2021/07/09 05:37:03;;;;;;;4.97;4.47;;;14.20;99.90;;;;;;5023360;28;20200;-58
2021/07/09 05:39:28;;;;;;;8.73;5.00;;;14.20;99.90;;;;;;5019507;28;20658;-58
2021/07/09 05:41:54;;;;;;;13.57;5.03;;;14.30;99.90;;;;;;5021314;28;20199;-58
2021/07/09 05:44:19;;;;;;;5.83;4.40;;;14.30;99.90;;;;;;5021118;28;20180;-58
2021/07/09 05:46:46;;;;;;;4.10;3.70;;;14.30;99.90;;;;;;5023310;28;20324;-58
2021/07/09 05:49:13;;;;;;;7.53;3.90;;;14.30;99.90;;;;;;5023298;28;20271;-58
2021/07/09 05:51:39;;;;;;;4.43;4.03;;;14.40;99.90;;;;;;5022210;28;20793;-58
2021/07/09 05:54:04;;;;;;;5.93;4.60;;;14.40;99.90;;;;;;5021398;28;21096;-58
2021/07/09 05:56:30;;;;;;;9.30;4.70;;;14.40;99.90;;;;;;5019062;28;20471;-58
2021/07/09 05:58:56;;;;;;;4.93;4.03;;;14.50;99.90;;;;;;5023584;28;21126;-58
2021/07/09 06:01:21;;;;;;;5.40;4.30;;;14.50;99.90;;;;;;5021659;28;20182;-58
2021/07/09 06:03:47;;;;;;;4.67;4.20;;;14.50;99.90;;;;;;5019987;28;20295;-58
2021/07/09 06:06:13;;;;;;;4.60;4.20;;;14.60;99.90;;;;;;5019861;28;20193;-58
2021/07/09 06:08:38;;;;;;;4.90;4.13;;;14.60;99.90;;;;;;5026360;28;20174;-58
2021/07/09 06:11:04;;;;;;;5.57;4.10;;;14.70;99.90;;;;;;5028388;28;20172;-58
2021/07/09 06:13:30;;;;;;;6.53;4.00;;;14.70;99.90;;;;;;5015751;28;20187;-58
2021/07/09 06:15:56;;;;;;;6.57;4.07;;;14.70;99.90;;;;;;5025767;28;20286;-59
2021/07/09 06:18:21;;;;;;;5.10;4.07;;;14.80;99.90;;;;;;5025490;28;20230;-59
2021/07/09 06:20:48;;;;;;;3.83;3.43;;;14.90;99.90;;;;;;5034694;28;20960;-59
2021/07/09 06:23:14;;;;;;;5.20;3.80;;;14.90;99.90;;;;;;5016352;28;20224;-59
2021/07/09 06:25:40;;;;;;;4.70;4.30;;;14.90;99.90;;;;;;5027034;28;20462;-59
2021/07/09 06:28:06;;;;;;;9.73;4.43;;;14.90;99.90;;;;;;5035269;28;20803;-59
2021/07/09 06:30:32;;;;;;;5.90;3.87;;;15.00;99.90;;;;;;5035106;28;20202;-59
2021/07/09 06:32:58;;;;;;;4.50;3.90;;;15.00;99.90;;;;;;5035440;28;20211;-59
2021/07/09 06:35:28;;;;;;;4.60;3.87;;;15.00;99.90;;;;;;5042002;22;20505;-53
2021/07/09 06:37:58;;;;;;;5.87;4.47;;;15.10;99.90;;;;;;5024767;28;20192;-54
2021/07/09 06:40:24;;;;;;;4.20;3.80;;;15.20;99.90;;;;;;5033295;28;20497;-54
2021/07/09 06:42:51;;;;;;;6.83;4.40;;;15.20;99.90;;;;;;5018105;28;20455;-54
2021/07/09 06:45:17;;;;;;;4.80;4.03;;;15.30;99.90;;;;;;5027453;28;20503;-55
2021/07/09 06:47:42;;;;;;;6.40;3.67;;;15.30;99.90;;;;;;5005714;28;20427;-54
2021/07/09 06:50:08;;;;;;;4.73;3.60;;;15.40;99.90;;;;;;5013857;28;20184;-55
2021/07/09 06:52:34;;;;;;;3.27;3.03;;;15.40;99.90;;;;;;5013830;28;20187;-54
2021/07/09 06:55:00;;;;;;;3.67;3.37;;;15.40;99.90;;;;;;5013523;28;20678;-53
2021/07/09 06:57:26;;;;;;;5.10;3.63;;;15.40;99.90;;;;;;5014081;28;20208;-54
2021/07/09 06:59:51;;;;;;;4.17;3.80;;;15.40;99.90;;;;;;5012271;28;20435;-53
2021/07/09 07:02:17;;;;;;;6.23;3.67;;;15.30;99.90;;;;;;5013085;28;20691;-54
2021/07/09 07:04:43;;;;;;;3.93;3.53;;;15.30;99.90;;;;;;5013721;28;20177;-54
2021/07/09 07:07:08;;;;;;;4.07;3.70;;;15.30;99.90;;;;;;5012351;28;20363;-53
2021/07/09 07:09:37;;;;;;;6.13;3.50;;;15.40;99.90;;;;;;5016780;28;20169;-54
2021/07/09 07:12:04;;;;;;;8.83;3.63;;;15.40;99.90;;;;;;5007079;28;20187;-53
2021/07/09 07:14:30;;;;;;;4.00;3.30;;;15.50;99.90;;;;;;5012086;28;20920;-54
2021/07/09 07:16:56;;;;;;;9.60;3.57;;;15.60;99.90;;;;;;5025891;28;20473;-53
2021/07/09 07:19:22;;;;;;;7.83;4.00;;;15.70;99.90;;;;;;5010355;28;20191;-54
2021/07/09 07:21:47;;;;;;;5.50;3.10;;;15.70;99.90;;;;;;5005731;28;20264;-52
2021/07/09 07:24:13;;;;;;;5.00;2.93;;;15.80;99.90;;;;;;5010514;28;20208;-54
2021/07/09 07:26:38;;;;;;;5.87;3.30;;;15.90;99.90;;;;;;5010379;28;20193;-52
2021/07/09 07:29:04;;;;;;;3.97;3.10;;;15.90;99.90;;;;;;5026404;28;20661;-53
2021/07/09 07:31:30;;;;;;;4.33;2.73;;;16.00;99.90;;;;;;5007571;28;20173;-52
2021/07/09 07:33:56;;;;;;;5.53;3.00;;;16.00;99.90;;;;;;5004928;28;20478;-53
2021/07/09 07:36:21;;;;;;;4.23;3.17;;;16.00;99.90;;;;;;5008437;28;20216;-53
2021/07/09 07:38:48;;;;;;;3.30;3.00;;;16.00;99.90;;;;;;5006288;28;20431;-57
2021/07/09 07:41:17;;;;;;;3.70;2.87;;;16.10;99.90;;;;;;5005979;28;20181;-51
2021/07/09 07:43:43;;;;;;;3.70;3.40;;;16.30;99.90;;;;;;5010263;28;20463;-53
2021/07/09 07:46:10;;;;;;;3.60;3.27;;;16.50;99.90;;;;;;5003656;28;20446;-52
2021/07/09 07:48:36;;;;;;;4.40;3.40;;;16.80;99.90;;;;;;5004577;28;20442;-56
2021/07/09 07:51:02;;;;;;;5.50;3.20;;;16.90;99.90;;;;;;5010183;28;20419;-52
2021/07/09 07:53:27;;;;;;;4.97;2.90;;;16.90;99.90;;;;;;5009004;28;20483;-53
2021/07/09 07:55:53;;;;;;;4.40;3.40;;;17.00;99.90;;;;;;5007851;28;20536;-53
2021/07/09 07:58:19;;;;;;;5.30;3.50;;;16.90;99.90;;;;;;5006854;28;20212;-53
2021/07/09 08:00:44;;;;;;;5.67;3.10;;;16.80;99.90;;;;;;5004714;28;20185;-54
2021/07/09 08:03:10;;;;;;;2.80;2.60;;;16.80;99.90;;;;;;5004668;28;20200;-54
2021/07/09 08:05:36;;;;;;;4.30;3.90;;;16.80;99.90;;;;;;5002866;28;20193;-52
2021/07/09 08:08:05;;;;;;;5.60;3.00;;;16.80;99.90;;;;;;5020644;28;20772;-53
2021/07/09 08:10:31;;;;;;;5.17;3.83;;;16.70;99.90;;;;;;5006224;28;20176;-54
2021/07/09 08:12:56;;;;;;;6.50;3.30;;;16.70;99.90;;;;;;5007622;28;20442;-53
2021/07/09 08:15:22;;;;;;;4.70;3.63;;;16.70;99.90;;;;;;5004867;28;20634;-54
2021/07/09 08:17:48;;;;;;;6.77;3.77;;;16.60;99.90;;;;;;5006144;28;20216;-53
2021/07/09 08:20:14;;;;;;;3.50;3.20;;;16.60;99.90;;;;;;5008241;28;20179;-53
2021/07/09 08:22:40;;;;;;;5.30;3.60;;;16.50;99.90;;;;;;4999909;28;20224;-55
2021/07/09 08:25:07;;;;;;;3.63;3.33;;;16.50;99.90;;;;;;5003819;28;20544;-53
2021/07/09 08:27:33;;;;;;;3.50;3.13;;;16.40;99.90;;;;;;5007065;28;20568;-53
2021/07/09 08:29:59;;;;;;;3.80;3.47;;;16.40;99.90;;;;;;5004910;28;20424;-53
2021/07/09 08:32:24;;;;;;;4.90;3.87;;;16.40;99.90;;;;;;5006481;28;20553;-53
2021/07/09 08:34:54;;;;;;;6.90;3.50;;;16.50;99.90;;;;;;5006044;28;20281;-53
2021/07/09 08:37:19;;;;;;;8.10;3.53;;;16.50;99.90;;;;;;5002826;28;20215;-53
2021/07/09 08:39:45;;;;;;;6.23;3.50;;;16.60;99.90;;;;;;5003903;28;20428;-53
2021/07/09 08:42:11;;;;;;;3.97;3.57;;;16.70;99.90;;;;;;5004350;28;20211;-53
2021/07/09 08:44:38;;;;;;;3.47;3.17;;;16.90;99.90;;;;;;5005452;28;20180;-53
2021/07/09 08:47:04;;;;;;;4.33;3.30;;;16.90;99.90;;;;;;5000818;28;20641;-53
2021/07/09 08:49:31;;;;;;;4.83;3.23;;;17.00;99.90;;;;;;5006501;28;20889;-53
2021/07/09 08:51:57;;;;;;;6.37;3.63;;;17.10;99.90;;;;;;5002122;28;20448;-53
2021/07/09 08:54:23;;;;;;;4.07;3.50;;;17.20;99.90;;;;;;5003741;28;20516;-53
2021/07/09 08:56:51;;;;;;;4.70;3.27;;;17.30;99.90;;;;;;5006223;28;20196;-54
2021/07/09 08:59:18;;;;;;;6.33;3.33;;;17.30;99.90;;;;;;5002127;28;20550;-53
2021/07/09 09:02:10;;;;;;;6.70;4.23;;;17.30;99.90;;;;;;5003412;28;20435;-54
2021/07/09 09:04:37;;;;;;;7.80;3.40;;;17.20;99.90;;;;;;4993963;28;20442;-54
2021/07/09 09:07:12;;;;;;;4.30;3.63;;;17.00;99.90;;;;;;5001872;28;20560;-53
2021/07/09 09:09:39;;;;;;;5.43;3.90;;;17.00;99.90;;;;;;5005262;28;20433;-53
2021/07/09 09:12:11;;;;;;;5.53;3.40;;;16.90;99.90;;;;;;5000420;28;20432;-53
2021/07/09 09:14:46;;;;;;;5.43;4.20;;;16.80;99.90;;;;;;5003878;28;21098;-54
2021/07/09 09:17:33;;;;;;;3.77;3.43;;;16.80;99.90;;;;;;5002200;28;21012;-52
2021/07/09 09:20:15;;;;;;;5.00;3.53;;;16.80;99.90;;;;;;5020321;28;20517;-53
2021/07/09 09:22:50;;;;;;;8.93;3.70;;;16.90;99.90;;;;;;5004874;28;20521;-54
2021/07/09 09:25:17;;;;;;;6.73;4.00;;;16.90;99.90;;;;;;5006850;28;20423;-53
2021/07/09 09:27:44;;;;;;;6.00;4.27;;;17.00;99.90;;;;;;5004141;28;20532;-54
2021/07/09 09:30:11;;;;;;;4.50;3.60;;;17.30;99.90;;;;;;5009982;28;20439;-54
2021/07/09 09:32:51;;;;;;;9.33;3.60;;;17.80;99.90;;;;;;5003292;28;20458;-54
2021/07/09 09:35:25;;;;;;;13.20;4.37;;;18.10;99.90;;;;;;4999176;28;20548;-54
2021/07/09 09:37:53;;;;;;;9.27;3.80;;;18.40;99.90;;;;;;5004511;28;20526;-53
2021/07/09 09:40:20;;;;;;;4.67;3.37;;;18.40;99.90;;;;;;5001061;28;20505;-53
2021/07/09 09:42:46;;;;;;;6.40;4.00;;;18.20;97.20;;;;;;5004314;28;20462;-53
2021/07/09 09:45:11;;;;;;;4.20;3.40;;;18.10;98.20;;;;;;5004883;28;20439;-53
2021/07/09 09:47:38;;;;;;;5.80;3.80;;;18.00;99.10;;;;;;5003469;28;20668;-53
2021/07/09 09:50:08;;;;;;;6.30;3.87;;;18.10;99.60;;;;;;5004723;28;20596;-53
2021/07/09 09:52:44;;;;;;;5.40;3.50;;;18.30;99.00;;;;;;5002083;28;20939;-53
2021/07/09 09:55:11;;;;;;;5.37;4.07;;;18.60;97.70;;;;;;4999553;28;20481;-52
2021/07/09 09:57:38;;;;;;;4.23;3.83;;;18.70;96.10;;;;;;5003277;28;20538;-53
2021/07/09 10:00:27;;;;;;;8.33;3.60;;;18.90;95.50;;;;;;5003684;28;20521;-52
2021/07/09 10:02:53;;;;;;;11.20;3.80;;;19.10;94.30;;;;;;4997006;28;20458;-54
2021/07/09 10:05:19;;;;;;;6.07;3.70;;;19.30;94.50;;;;;;5003215;28;20962;-54
2021/07/09 10:07:52;;;;;;;9.87;3.60;;;19.50;87.10;;;;;;5002138;28;20232;-54
2021/07/09 10:10:18;;;;;;;5.50;3.70;;;19.40;91.10;;;;;;5003332;28;21205;-54
2021/07/09 10:12:49;;;;;;;4.47;3.50;;;19.20;89.30;;;;;;5003057;28;20514;-54
2021/07/09 10:15:17;;;;;;;5.40;4.13;;;19.10;91.60;;;;;;4998369;28;20455;-53
2021/07/09 10:17:49;;;;;;;5.03;3.50;;;18.90;89.20;;;;;;5003046;28;20518;-54
2021/07/09 10:20:17;;;;;;;6.80;3.37;;;18.80;91.40;;;;;;5003690;28;20430;-53
2021/07/09 10:22:45;;;;;;;4.07;3.20;;;18.70;91.30;;;;;;5005862;28;20990;-53
2021/07/09 10:25:12;;;;;;;6.77;4.33;;;18.70;93.60;;;;;;5014776;28;20458;-53
2021/07/09 10:27:43;;;;;;;5.10;3.47;;;18.90;90.90;;;;;;5005083;28;20431;-54
2021/07/09 10:30:10;;;;;;;3.70;3.40;;;18.90;91.90;;;;;;5003256;28;20438;-54
2021/07/09 10:32:38;;;;;;;6.87;3.67;;;18.80;91.60;;;;;;5004615;28;20435;-54
2021/07/09 10:35:11;;;;;;;9.73;4.73;;;18.90;91.70;;;;;;5006629;28;21195;-53
2021/07/09 10:37:38;;;;;;;4.60;3.70;;;19.40;93.70;;;;;;5006129;28;21018;-53
2021/07/09 10:40:14;;;;;;;4.93;3.57;;;19.90;88.70;;;;;;5002424;28;20738;-54
2021/07/09 10:42:42;;;;;;;7.03;4.33;;;20.40;84.60;;;;;;5000706;28;20649;-54
2021/07/09 10:45:20;;;;;;;6.97;3.53;;;20.60;88.60;;;;;;5002351;28;20454;-54
2021/07/09 10:47:48;;;;;;;4.93;3.53;;;20.60;76.00;;;;;;4997583;28;20780;-53
2021/07/09 10:50:25;;;;;;;4.07;3.60;;;20.30;71.80;;;;;;5001609;28;20947;-54
2021/07/09 10:52:53;;;;;;;11.33;3.30;;;20.10;74.10;;;;;;5001978;28;20521;-54
2021/07/09 10:55:28;;;;;;;4.97;3.57;;;19.90;80.20;;;;;;5004143;28;20435;-54
2021/07/09 10:58:19;;;;;;;4.27;3.37;;;19.60;78.60;;;;;;5003267;28;20418;-54
2021/07/09 11:00:50;;;;;;;3.67;3.37;;;19.60;81.90;;;;;;5006971;28;20435;-54
2021/07/09 11:03:26;;;;;;;3.60;3.30;;;19.70;87.20;;;;;;5021318;28;20584;-53
2021/07/09 11:05:59;;;;;;;5.47;3.50;;;20.10;77.90;;;;;;4999678;28;20450;-53
2021/07/09 11:08:33;;;;;;;5.37;3.20;;;20.40;76.30;;;;;;5008905;28;20477;-53
2021/07/09 11:11:00;;;;;;;3.87;3.17;;;20.60;71.30;;;;;;5011252;28;20709;-54
2021/07/09 11:13:49;;;;;;;4.50;3.60;;;20.60;70.60;;;;;;5009348;28;20518;-53
2021/07/09 11:16:18;;;;;;;6.53;3.37;;;20.40;72.20;;;;;;5010602;28;20446;-54
2021/07/09 11:19:09;;;;;;;5.53;3.70;;;20.30;74.60;;;;;;5010735;28;20497;-54
2021/07/09 11:21:37;;;;;;;5.93;4.30;;;20.20;69.60;;;;;;5007040;28;20453;-54
2021/07/09 11:24:07;;;;;;;5.50;2.80;;;20.30;72.20;;;;;;5007428;28;20532;-55
2021/07/09 11:26:41;;;;;;;5.77;3.60;;;20.20;69.60;;;;;;5003505;28;20462;-54
2021/07/09 11:29:33;;;;;;;3.53;3.20;;;20.30;71.80;;;;;;5007734;28;20415;-54
2021/07/09 11:32:06;;;;;;;5.77;3.03;;;20.40;75.20;;;;;;5005876;28;20447;-56
2021/07/09 11:34:34;;;;;;;4.80;3.77;;;20.40;75.50;;;;;;5004710;28;20423;-55
2021/07/09 11:37:05;;;;;;;4.03;3.57;;;20.60;74.60;;;;;;5008397;28;20584;-55
2021/07/09 11:39:46;;;;;;;6.80;3.67;;;20.80;67.80;;;;;;5004710;28;20509;-54
2021/07/09 11:42:23;;;;;;;7.93;3.30;;;20.90;70.50;;;;;;5006295;28;20451;-55
2021/07/09 11:45:00;;;;;;;5.60;4.00;;;21.10;68.70;;;;;;5008081;28;20521;-54
2021/07/09 11:47:35;;;;;;;4.97;3.33;;;21.10;73.20;;;;;;5018396;28;20458;-54
2021/07/09 11:50:11;;;;;;;3.60;3.30;;;21.20;76.40;;;;;;5005610;28;20426;-54
2021/07/09 11:52:42;;;;;;;4.30;3.67;;;21.20;70.90;;;;;;5004730;28;20442;-54
2021/07/09 11:55:26;;;;;;;4.07;3.40;;;21.20;76.70;;;;;;5007323;28;20423;-54
2021/07/09 11:57:51;;;;;;;3.63;3.30;;;21.60;77.70;;;;;;5009097;28;20743;-55
2021/07/09 12:00:20;;;;;;;3.47;3.23;;;22.10;74.70;;;;;;5009195;28;20431;-57
2021/07/09 12:02:48;;;;;;;4.47;2.80;;;22.30;67.20;;;;;;5006918;28;20193;-57
2021/07/09 12:05:22;;;;;;;3.43;3.03;;;22.30;67.30;;;;;;5002641;28;20968;-56
2021/07/09 12:07:52;;;;;;;9.57;3.20;;;22.30;64.20;;;;;;5007247;28;20509;-55
2021/07/09 12:10:29;;;;;;;3.30;3.00;;;22.20;61.40;;;;;;5000193;28;20458;-56
2021/07/09 12:13:03;;;;;;;3.00;2.80;;;22.10;62.30;;;;;;5001847;28;20468;-55
2021/07/09 12:15:30;;;;;;;5.07;2.90;;;22.00;61.70;;;;;;5004297;28;20836;-55
2021/07/09 12:18:03;;;;;;;7.93;2.90;;;21.80;60.00;;;;;;5007828;28;20435;-55
2021/07/09 12:20:49;;;;;;;3.40;3.10;;;21.70;60.50;;;;;;5013938;28;20423;-55
2021/07/09 12:23:17;;;;;;;2.90;2.60;;;21.80;61.40;;;;;;5002972;28;20459;-55
2021/07/09 12:25:47;;;;;;;4.17;3.20;;;21.90;56.20;;;;;;5004742;28;20463;-54
2021/07/09 12:28:18;;;;;;;4.70;2.70;;;21.90;58.50;;;;;;5007451;28;20900;-54
2021/07/09 12:30:59;;;;;;;4.47;2.90;;;21.90;58.60;;;;;;5010742;28;20420;-55
2021/07/09 12:33:40;;;;;;;3.10;2.37;;;21.80;59.00;;;;;;5014258;28;20513;-55
2021/07/09 12:36:11;;;;;;;3.77;3.30;;;21.70;57.20;;;;;;5039363;22;20546;-57
2021/07/09 12:38:41;;;;;;;2.73;2.53;;;21.50;58.40;;;;;;5049570;28;20410;-59
2021/07/09 12:41:08;;;;;;;4.80;2.70;;;21.60;62.20;;;;;;5049734;28;20402;-59
2021/07/09 12:43:47;;;;;;;3.50;3.20;;;22.00;64.80;;;;;;5046040;28;21206;-59
2021/07/09 12:46:21;;;;;;;4.93;3.40;;;22.20;58.70;;;;;;5043790;28;20465;-58
2021/07/09 12:48:57;;;;;;;5.03;3.00;;;22.20;60.60;;;;;;5040873;28;20499;-59
2021/07/09 12:51:35;;;;;;;3.10;2.73;;;22.00;61.00;;;;;;5029306;28;20833;-58
2021/07/09 12:54:09;;;;;;;3.87;2.90;;;21.70;63.70;;;;;;5040965;28;20460;-58